Time;durP1;ratioP1;P1;durP2;ratioP2;P2;SDS_P1;SDS_P2;PMS_P1;PMS_P2;Temp;Humidity;BMP_temperature;BMP_pressure;BME280_temperature;BME280_humidity;BME280_pressure;Samples;Min_cycle;Max_cycle;Signal;HPM_P1;HPM_P2
2024/01/01 00:01:50;;;;;;;167.70;88.50;;;;;;;1.96;100.00;98148.16;272909;1279;23191;-89
2024/01/01 00:23:37;;;;;;;176.80;89.00;;;;;;;1.80;100.00;98139.55;272939;1279;22999;-89
2024/01/01 00:30:20;;;;;;;152.30;83.30;;;;;;;1.75;100.00;98135.61;272955;1273;23665;-88
2024/01/01 00:37:22;;;;;;;130.20;64.70;;;;;;;1.69;100.00;98126.70;272926;1272;22310;-88
2024/01/01 00:44:04;;;;;;;132.40;65.50;;;;;;;1.57;100.00;98120.35;273100;1273;22388;-89
2024/01/01 00:51:14;;;;;;;126.40;67.90;;;;;;;1.58;100.00;98123.21;272997;1279;22396;-88
2024/01/01 00:58:57;;;;;;;120.20;63.60;;;;;;;1.55;100.00;98127.98;272923;1279;22217;-89
2024/01/01 01:06:13;;;;;;;111.30;59.50;;;;;;;1.72;100.00;98130.02;272855;1272;23297;-88
2024/01/01 01:13:16;;;;;;;153.10;79.50;;;;;;;1.69;100.00;98132.71;272954;1272;22326;-88
2024/01/01 01:20:44;;;;;;;125.90;67.00;;;;;;;1.78;100.00;98132.86;272911;1276;22349;-89
2024/01/01 01:28:26;;;;;;;146.90;80.90;;;;;;;1.80;100.00;98135.94;273026;1273;23489;-89
2024/01/01 01:35:09;;;;;;;96.40;53.90;;;;;;;1.77;100.00;98140.39;272812;1273;22234;-89
2024/01/01 01:42:41;;;;;;;180.10;88.90;;;;;;;1.82;100.00;98126.42;273178;1269;22256;-89
2024/01/01 01:49:33;;;;;;;176.50;87.60;;;;;;;1.85;100.00;98117.66;273833;1267;22404;-89
2024/01/01 02:12:52;;;;;;;163.40;89.40;;;;;;;1.70;100.00;98110.46;273956;1275;23415;-89
2024/01/01 02:35:57;;;;;;;142.90;78.00;;;;;;;1.37;100.00;98114.38;272374;1263;22304;-88
2024/01/01 02:41:59;;;;;;;133.20;66.00;;;;;;;1.37;100.00;98103.88;273018;1269;22327;-89
2024/01/01 02:48:01;;;;;;;149.80;78.30;;;;;;;1.36;100.00;98092.52;273235;1269;22418;-88
2024/01/01 02:54:03;;;;;;;129.70;70.70;;;;;;;1.33;100.00;98090.96;273211;1272;22303;-89
2024/01/01 03:00:09;;;;;;;110.30;57.50;;;;;;;1.28;100.00;98101.17;272854;1269;22627;-89
2024/01/01 03:06:12;;;;;;;127.50;69.40;;;;;;;1.25;100.00;98113.73;273260;1269;22388;-89
2024/01/01 03:12:13;;;;;;;170.90;92.30;;;;;;;1.23;100.00;98134.63;273128;1270;22368;-89
2024/01/01 03:18:17;;;;;;;155.30;80.70;;;;;;;1.25;100.00;98147.06;273236;1269;22296;-88
2024/01/01 03:24:19;;;;;;;150.50;76.40;;;;;;;1.23;100.00;98154.35;273274;1269;22385;-88
2024/01/01 03:30:22;;;;;;;151.80;76.40;;;;;;;1.16;100.00;98140.70;273214;1269;22690;-88
2024/01/01 03:36:24;;;;;;;145.60;74.00;;;;;;;1.21;100.00;98124.36;273201;1268;155177;-88
2024/01/01 03:42:26;;;;;;;150.90;77.40;;;;;;;1.31;100.00;98120.77;273264;1269;22359;-88
2024/01/01 03:48:27;;;;;;;136.60;72.50;;;;;;;1.44;100.00;98114.98;272991;1269;23249;-87
2024/01/01 03:54:29;;;;;;;134.30;73.10;;;;;;;1.50;100.00;98101.52;270958;1272;24166;-89
2024/01/01 04:00:31;;;;;;;142.30;71.00;;;;;;;1.56;100.00;98084.09;272840;1269;22461;-88
2024/01/01 04:06:33;;;;;;;157.90;85.10;;;;;;;1.61;100.00;98070.21;273222;1269;22225;-88
2024/01/01 04:12:35;;;;;;;154.10;82.90;;;;;;;1.60;100.00;98068.32;273116;1270;22968;-88
2024/01/01 04:18:37;;;;;;;159.70;80.60;;;;;;;1.64;100.00;98073.14;273188;1269;22391;-88
2024/01/01 04:24:39;;;;;;;151.10;83.60;;;;;;;1.70;100.00;98069.16;273253;1269;22388;-88
2024/01/01 04:30:41;;;;;;;153.10;80.10;;;;;;;1.77;100.00;98068.69;273387;1270;23079;-89
2024/01/01 04:36:43;;;;;;;148.30;80.20;;;;;;;1.85;100.00;98065.61;273312;1272;22331;-88
2024/01/01 04:42:48;;;;;;;156.00;81.90;;;;;;;1.95;100.00;98058.27;273325;1270;23198;-88
2024/01/01 04:48:50;;;;;;;155.20;84.40;;;;;;;2.02;100.00;98047.32;273463;1269;23233;-89
2024/01/01 04:54:55;;;;;;;169.00;85.40;;;;;;;2.12;100.00;98045.91;273156;1270;22311;-89
2024/01/01 05:00:57;;;;;;;168.30;86.70;;;;;;;2.20;100.00;98044.29;273218;1269;23909;-88
2024/01/01 05:06:59;;;;;;;151.60;80.90;;;;;;;2.30;100.00;98039.84;273266;1269;22334;-89
2024/01/01 05:13:01;;;;;;;139.90;74.00;;;;;;;2.39;100.00;98035.62;273309;1275;22314;-89
2024/01/01 05:19:03;;;;;;;147.70;81.10;;;;;;;2.43;100.00;98027.55;273259;1269;22392;-88
2024/01/01 05:25:05;;;;;;;167.70;89.40;;;;;;;2.48;100.00;98018.77;273268;1270;22345;-89
2024/01/01 05:31:07;;;;;;;147.70;79.00;;;;;;;2.47;100.00;98016.10;273301;1269;22226;-88
2024/01/01 05:37:09;;;;;;;144.60;74.90;;;;;;;2.46;100.00;98005.42;273199;1270;22394;-88
2024/01/01 05:43:11;;;;;;;155.50;80.60;;;;;;;2.50;100.00;97994.58;273524;1269;22438;-89
2024/01/01 05:49:13;;;;;;;142.80;77.30;;;;;;;2.57;100.00;97996.45;273536;1270;23082;-89
2024/01/01 05:55:15;;;;;;;137.70;72.70;;;;;;;2.63;100.00;97979.70;273122;1269;22698;-88
2024/01/01 06:01:17;;;;;;;125.60;67.00;;;;;;;2.65;100.00;97981.67;271240;1272;22645;-87
2024/01/01 06:07:19;;;;;;;140.00;76.10;;;;;;;2.60;100.00;97986.79;270981;1272;25574;-89
2024/01/01 06:13:23;;;;;;;136.40;75.50;;;;;;;2.62;100.00;97990.02;271550;1272;22409;-88
2024/01/01 06:19:25;;;;;;;138.70;75.70;;;;;;;2.70;100.00;97986.15;273546;1270;23186;-89
2024/01/01 06:25:27;;;;;;;138.30;72.60;;;;;;;2.78;100.00;97995.98;272700;1270;22206;-88
2024/01/01 06:31:29;;;;;;;139.50;74.70;;;;;;;2.77;100.00;98007.61;273257;1269;22298;-88
2024/01/01 06:37:30;;;;;;;128.70;69.00;;;;;;;2.78;100.00;98026.66;272400;1269;22569;-87
2024/01/01 06:43:33;;;;;;;134.00;70.40;;;;;;;2.85;100.00;98017.79;273086;1269;22460;-88
2024/01/01 06:49:36;;;;;;;121.30;67.00;;;;;;;2.92;100.00;98034.59;273228;1270;23531;-89
2024/01/01 06:55:38;;;;;;;123.10;62.60;;;;;;;2.92;100.00;98057.42;272439;1268;22544;-88
2024/01/01 07:01:41;;;;;;;114.70;60.70;;;;;;;2.89;100.00;98067.02;272788;1269;23583;-87
2024/01/01 07:07:43;;;;;;;110.10;56.90;;;;;;;2.97;100.00;98068.30;272857;1270;23386;-86
2024/01/01 07:13:47;;;;;;;108.10;57.50;;;;;;;3.04;100.00;98068.34;272780;1271;22195;-88
2024/01/01 07:19:51;;;;;;;108.30;58.10;;;;;;;3.07;100.00;98064.86;272666;1273;22285;-87
2024/01/01 07:25:54;;;;;;;116.70;59.90;;;;;;;3.06;100.00;98055.25;273422;1270;22404;-88
2024/01/01 07:31:56;;;;;;;125.50;63.50;;;;;;;3.07;100.00;98051.50;273602;1269;22366;-87
2024/01/01 07:38:00;;;;;;;116.30;65.10;;;;;;;3.09;100.00;98057.64;273080;1273;22577;-88
2024/01/01 07:44:02;;;;;;;114.50;63.30;;;;;;;3.18;100.00;98061.19;270240;1272;22566;-89
2024/01/01 07:50:07;;;;;;;122.20;72.20;;;;;;;3.20;100.00;98060.77;271953;1270;23663;-87
2024/01/01 07:56:09;;;;;;;129.90;66.10;;;;;;;3.24;100.00;98059.58;272385;1269;22567;-87
2024/01/01 08:02:10;;;;;;;119.10;65.20;;;;;;;3.28;100.00;98057.88;271509;1270;22402;-88
2024/01/01 08:08:12;;;;;;;120.20;63.40;;;;;;;3.32;100.00;98063.23;272368;1275;22449;-88
2024/01/01 08:14:14;;;;;;;120.80;62.50;;;;;;;3.37;100.00;98064.60;272725;1272;22204;-88
2024/01/01 08:20:16;;;;;;;117.40;59.50;;;;;;;3.45;100.00;98065.94;271865;1270;23895;-87
2024/01/01 08:26:18;;;;;;;101.50;51.90;;;;;;;3.55;100.00;98059.92;271774;1272;22197;-88
2024/01/01 08:32:20;;;;;;;89.00;48.40;;;;;;;3.66;100.00;98052.91;273207;1269;22909;-89
2024/01/01 08:38:22;;;;;;;74.40;39.30;;;;;;;3.73;100.00;98047.67;272447;1273;22226;-89
2024/01/01 08:44:24;;;;;;;52.50;27.00;;;;;;;3.78;100.00;98052.03;273385;1270;22493;-88
2024/01/01 08:50:25;;;;;;;46.60;25.20;;;;;;;3.79;100.00;98058.79;273219;1269;23719;-88
2024/01/01 08:56:27;;;;;;;44.10;24.40;;;;;;;3.82;100.00;98064.03;272450;1272;23631;-88
2024/01/01 09:02:29;;;;;;;40.20;22.20;;;;;;;3.84;100.00;98066.70;272722;1270;23338;-87
2024/01/01 09:08:31;;;;;;;36.20;20.90;;;;;;;3.82;100.00;98070.06;273359;1272;22476;-88
2024/01/01 09:14:35;;;;;;;40.50;22.70;;;;;;;3.78;100.00;98072.37;273224;1273;22187;-87
2024/01/01 09:20:38;;;;;;;45.20;25.20;;;;;;;3.79;100.00;98067.77;273432;1269;22950;-89
2024/01/01 09:26:40;;;;;;;45.00;23.20;;;;;;;3.79;100.00;98068.07;273599;1270;22195;-89
2024/01/01 09:32:42;;;;;;;30.10;17.20;;;;;;;3.76;100.00;98068.46;273228;1272;23006;-89
2024/01/01 09:38:47;;;;;;;26.90;14.50;;;;;;;3.67;100.00;98072.02;273204;1269;22244;-88
2024/01/01 09:44:53;;;;;;;22.10;10.90;;;;;;;3.57;100.00;98068.55;273303;1269;22388;-89
2024/01/01 09:50:57;;;;;;;20.70;11.00;;;;;;;3.45;100.00;98062.63;273196;1272;22443;-90
2024/01/01 09:56:59;;;;;;;22.50;13.30;;;;;;;3.39;100.00;98070.20;273153;1273;22428;-87
2024/01/01 10:03:07;;;;;;;16.30;8.40;;;;;;;3.39;100.00;98073.60;273370;1272;23529;-90
2024/01/01 10:09:12;;;;;;;9.10;4.90;;;;;;;3.27;100.00;98085.61;273113;1270;22351;-89
2024/01/01 10:15:14;;;;;;;9.40;4.60;;;;;;;3.04;100.00;98092.43;272988;1270;22381;-89
2024/01/01 10:21:15;;;;;;;7.90;4.80;;;;;;;2.83;100.00;98091.34;273414;1271;22194;-88
2024/01/01 10:27:19;;;;;;;9.50;5.10;;;;;;;2.71;100.00;98090.56;273261;1273;22247;-89
2024/01/01 10:33:21;;;;;;;7.50;4.20;;;;;;;2.50;100.00;98092.45;273232;1276;22215;-90
2024/01/01 10:39:24;;;;;;;6.40;3.90;;;;;;;2.27;100.00;98098.25;273411;1276;22631;-88
2024/01/01 10:45:26;;;;;;;7.70;4.80;;;;;;;2.01;100.00;98098.94;272303;1271;22559;-89
2024/01/01 10:51:57;;;;;;;8.60;4.90;;;;;;;1.82;100.00;98101.14;272036;1269;22211;-89
2024/01/01 10:58:37;;;;;;;8.40;5.10;;;;;;;1.56;100.00;98099.72;273221;1273;22285;-89
2024/01/01 11:04:42;;;;;;;13.40;5.10;;;;;;;1.37;100.00;98101.09;271767;1267;22277;-91
2024/01/01 11:10:45;;;;;;;9.30;4.70;;;;;;;1.23;100.00;98098.56;273016;1270;23321;-91
2024/01/01 11:16:52;;;;;;;8.80;5.40;;;;;;;1.13;100.00;98095.61;273404;1276;23142;-91
2024/01/01 11:22:56;;;;;;;9.60;5.50;;;;;;;1.03;100.00;98098.60;273324;1270;22282;-91
2024/01/01 11:29:06;;;;;;;11.40;5.90;;;;;;;0.98;100.00;98103.02;273140;1270;22656;-93
2024/01/01 11:35:13;;;;;;;11.90;5.90;;;;;;;0.95;100.00;98102.09;273401;1277;22299;-89
2024/01/01 11:41:32;;;;;;;11.60;6.80;;;;;;;0.92;100.00;98106.05;273371;1271;22465;-90
2024/01/01 11:47:37;;;;;;;12.70;5.70;;;;;;;0.91;100.00;98108.65;272115;1261;22459;-91
2024/01/01 11:53:39;;;;;;;12.10;6.80;;;;;;;0.94;100.00;98113.66;272824;1270;22545;-90
2024/01/01 11:59:41;;;;;;;12.90;6.90;;;;;;;0.96;100.00;98110.89;264717;1269;10002098;-89
2024/01/01 12:05:46;;;;;;;11.00;6.30;;;;;;;0.94;100.00;98107.27;271628;1270;22698;-92
2024/01/01 12:12:05;;;;;;;10.20;6.10;;;;;;;0.96;100.00;98113.36;271527;1269;22484;-91
2024/01/01 12:18:14;;;;;;;;;;;;;;;0.95;100.00;98117.08;270945;1270;22453;-91
2024/01/01 12:24:21;;;;;;;11.50;7.00;;;;;;;0.93;100.00;98118.11;272215;1270;22228;-89
2024/01/01 12:30:27;;;;;;;14.00;8.20;;;;;;;0.98;100.00;98112.27;272309;1269;22265;-89
2024/01/01 12:36:29;;;;;;;11.90;8.00;;;;;;;1.01;100.00;98115.45;271667;1269;22623;-88
2024/01/01 12:42:33;;;;;;;14.90;8.80;;;;;;;1.06;100.00;98112.45;272084;1269;23399;-91
2024/01/01 12:48:35;;;;;;;15.70;8.10;;;;;;;1.08;100.00;98110.38;273118;1269;22178;-88
2024/01/01 12:54:37;;;;;;;13.40;8.00;;;;;;;1.13;100.00;98109.39;273231;1270;22291;-89
2024/01/01 13:00:39;;;;;;;14.90;8.80;;;;;;;1.22;100.00;98106.16;273000;1270;22215;-89
2024/01/01 13:06:42;;;;;;;16.60;8.40;;;;;;;1.28;100.00;98109.45;271948;1270;24362;-89
2024/01/01 13:12:44;;;;;;;13.10;8.10;;;;;;;1.31;100.00;98113.63;273304;1270;22792;-90
2024/01/01 13:18:46;;;;;;;17.50;10.60;;;;;;;1.34;100.00;98114.00;273217;1269;22234;-89
2024/01/01 13:24:49;;;;;;;17.80;11.10;;;;;;;1.35;100.00;98110.20;273101;1269;22522;-88
2024/01/01 13:30:51;;;;;;;23.00;13.10;;;;;;;1.37;100.00;98110.81;273142;1270;22450;-88
2024/01/01 13:36:53;;;;;;;23.70;13.40;;;;;;;1.41;100.00;98114.64;273334;1270;22449;-89
2024/01/01 13:42:55;;;;;;;25.70;14.80;;;;;;;1.43;100.00;98123.64;273270;1269;22504;-88
2024/01/01 13:48:57;;;;;;;30.20;16.00;;;;;;;1.43;100.00;98123.48;271337;1272;22971;-88
2024/01/01 13:55:00;;;;;;;33.30;17.80;;;;;;;1.44;100.00;98124.98;272912;1270;22252;-89
2024/01/01 14:01:03;;;;;;;32.70;18.40;;;;;;;1.45;100.00;98126.10;273080;1269;22227;-89
2024/01/01 14:07:05;;;;;;;35.10;18.40;;;;;;;1.47;100.00;98125.09;271748;1269;22520;-89
2024/01/01 14:13:07;;;;;;;35.20;20.30;;;;;;;1.54;100.00;98127.45;272442;1270;25301;-88
2024/01/01 14:19:09;;;;;;;34.20;19.80;;;;;;;1.57;100.00;98128.66;270743;1270;22329;-87
2024/01/01 14:25:12;;;;;;;43.30;22.60;;;;;;;1.61;100.00;98129.94;273207;1268;23457;-88
2024/01/01 14:31:14;;;;;;;43.80;23.20;;;;;;;1.68;100.00;98133.55;273006;1270;23258;-87
2024/01/01 14:37:16;;;;;;;46.50;26.20;;;;;;;1.71;100.00;98140.67;272880;1270;22394;-87
2024/01/01 14:43:21;;;;;;;49.10;27.00;;;;;;;1.74;100.00;98146.15;273031;1267;23757;-87
2024/01/01 14:49:23;;;;;;;44.70;25.70;;;;;;;1.79;100.00;98148.05;272439;1269;22458;-87
2024/01/01 14:55:28;;;;;;;44.20;24.70;;;;;;;1.87;100.00;98148.94;272407;1267;22587;-87
2024/01/01 15:01:30;;;;;;;38.20;21.30;;;;;;;1.95;100.00;98153.66;271747;1269;22572;-86
2024/01/01 15:07:34;;;;;;;45.10;23.30;;;;;;;2.02;100.00;98153.64;273480;1269;23453;-87
2024/01/01 15:13:36;;;;;;;43.40;22.40;;;;;;;2.10;100.00;98160.86;273526;1269;22305;-88
2024/01/01 15:19:39;;;;;;;39.40;22.50;;;;;;;2.18;100.00;98160.40;273572;1269;22292;-86
2024/01/01 15:25:41;;;;;;;41.60;22.20;;;;;;;2.25;100.00;98155.31;273457;1269;22203;-88
2024/01/01 15:31:43;;;;;;;43.70;23.80;;;;;;;2.34;100.00;98158.58;272907;1267;22201;-87
2024/01/01 15:37:49;;;;;;;38.90;21.20;;;;;;;2.41;100.00;98163.34;273340;1267;145311;-89
2024/01/01 15:43:51;;;;;;;37.20;20.70;;;;;;;2.51;100.00;98168.56;272772;1267;23022;-88
2024/01/01 15:49:53;;;;;;;33.90;17.80;;;;;;;2.61;100.00;98166.78;273585;1269;22583;-89
2024/01/01 15:55:56;;;;;;;30.30;15.80;;;;;;;2.75;100.00;98173.52;271499;1269;22266;-89
2024/01/01 16:01:58;;;;;;;26.90;15.10;;;;;;;2.88;100.00;98177.96;270599;1261;22419;-88
2024/01/01 16:08:00;;;;;;;24.20;13.20;;;;;;;3.00;100.00;98195.21;272477;1269;23086;-87
2024/01/01 16:14:02;;;;;;;26.30;14.50;;;;;;;3.10;100.00;98211.26;271361;1253;23899;-89
2024/01/01 16:20:05;;;;;;;31.10;13.20;;;;;;;3.18;100.00;98218.23;272621;1267;22654;-87
2024/01/01 16:26:08;;;;;;;24.80;12.70;;;;;;;3.27;100.00;98216.45;273390;1267;23021;-87
2024/01/01 16:32:10;;;;;;;28.40;13.60;;;;;;;3.38;100.00;98220.20;273521;1269;22430;-87
2024/01/01 16:38:14;;;;;;;22.70;12.00;;;;;;;3.47;100.00;98228.88;272111;1269;22379;-87
2024/01/01 16:44:16;;;;;;;24.80;13.20;;;;;;;3.56;100.00;98237.46;273344;1267;23158;-88
2024/01/01 16:50:19;;;;;;;23.00;11.80;;;;;;;3.63;100.00;98243.15;273484;1269;22574;-89
2024/01/01 16:56:21;;;;;;;22.10;11.20;;;;;;;3.68;100.00;98249.30;273586;1267;22224;-87
2024/01/01 17:02:23;;;;;;;20.30;10.30;;;;;;;3.74;100.00;98254.81;273663;1269;22228;-89
2024/01/01 17:08:25;;;;;;;19.90;10.60;;;;;;;3.83;100.00;98263.15;273407;1269;22499;-88
2024/01/01 17:14:28;;;;;;;22.70;11.10;;;;;;;3.89;100.00;98271.90;273504;1269;23356;-89
2024/01/01 17:20:31;;;;;;;23.10;11.30;;;;;;;3.95;100.00;98276.77;273529;1269;22444;-89
2024/01/01 17:26:33;;;;;;;20.90;10.80;;;;;;;3.96;100.00;98272.78;273506;1269;23041;-88
2024/01/01 17:32:35;;;;;;;21.40;12.00;;;;;;;3.96;100.00;98273.02;273466;1269;22444;-88
2024/01/01 17:38:38;;;;;;;23.30;12.60;;;;;;;3.97;100.00;98279.15;273409;1269;22892;-89
2024/01/01 17:44:40;;;;;;;27.40;12.00;;;;;;;3.95;100.00;98284.75;273615;1269;22393;-87
2024/01/01 17:50:42;;;;;;;24.80;12.10;;;;;;;3.94;100.00;98285.64;273216;1269;22229;-90
2024/01/01 17:56:47;;;;;;;26.00;12.50;;;;;;;3.94;100.00;98290.74;273602;1252;22382;-91
2024/01/01 18:02:49;;;;;;;31.20;15.70;;;;;;;3.92;100.00;98292.48;273403;1270;22382;-91
2024/01/01 18:08:53;;;;;;;27.90;13.60;;;;;;;3.91;100.00;98288.13;273316;1268;22416;-89
2024/01/01 18:14:55;;;;;;;26.40;13.30;;;;;;;3.90;100.00;98295.27;273535;1269;22312;-90
2024/01/01 18:20:57;;;;;;;29.10;12.50;;;;;;;3.91;100.00;98305.36;273611;1269;22565;-90
2024/01/01 18:26:59;;;;;;;26.00;11.90;;;;;;;3.89;100.00;98310.20;273254;1269;22403;-90
2024/01/01 18:33:01;;;;;;;32.70;13.50;;;;;;;3.85;100.00;98313.43;273497;1269;22372;-90
2024/01/01 18:39:03;;;;;;;26.30;12.00;;;;;;;3.83;100.00;98315.29;273504;1259;23063;-88
2024/01/01 18:45:05;;;;;;;23.60;11.20;;;;;;;3.83;100.00;98317.31;273251;1269;22212;-90
2024/01/01 18:51:08;;;;;;;23.40;10.80;;;;;;;3.85;100.00;98313.05;273445;1266;22401;-90
2024/01/01 18:57:11;;;;;;;25.30;11.10;;;;;;;3.88;100.00;98312.79;273444;1268;22551;-90
2024/01/01 19:03:13;;;;;;;24.40;11.80;;;;;;;3.91;100.00;98313.11;273383;1269;22497;-89
2024/01/01 19:09:15;;;;;;;23.00;10.90;;;;;;;3.94;100.00;98316.20;273596;1269;22457;-89
2024/01/01 19:15:17;;;;;;;22.60;11.90;;;;;;;3.95;100.00;98323.98;273489;1267;22322;-89
2024/01/01 19:21:20;;;;;;;21.30;9.10;;;;;;;3.96;100.00;98333.11;273629;1269;22218;-88
2024/01/01 19:27:22;;;;;;;24.20;10.30;;;;;;;3.97;100.00;98337.86;273483;1269;22665;-89
2024/01/01 19:33:24;;;;;;;22.00;10.20;;;;;;;4.01;100.00;98343.95;272269;1269;22442;-89
2024/01/01 19:39:26;;;;;;;22.70;9.90;;;;;;;4.05;100.00;98348.61;273635;1269;22222;-90
2024/01/01 19:45:29;;;;;;;22.70;9.70;;;;;;;4.03;100.00;98351.51;273823;1257;23040;-89
2024/01/01 19:51:31;;;;;;;22.10;9.20;;;;;;;4.00;100.00;98354.89;273533;1269;22221;-88
2024/01/01 19:57:34;;;;;;;22.20;9.20;;;;;;;3.96;100.00;98360.13;273552;1269;22209;-89
2024/01/01 20:03:36;;;;;;;17.90;8.50;;;;;;;3.94;100.00;98353.66;273704;1269;23691;-88
2024/01/01 20:09:43;;;;;;;25.90;9.10;;;;;;;3.92;100.00;98353.60;273572;1269;23950;-89
2024/01/01 20:15:45;;;;;;;20.30;9.20;;;;;;;3.90;100.00;98354.86;273607;1269;22375;-89
2024/01/01 20:21:47;;;;;;;28.80;10.30;;;;;;;3.92;100.00;98356.75;273471;1269;22420;-89
2024/01/01 20:27:49;;;;;;;22.30;10.10;;;;;;;3.91;100.00;98359.83;273474;1269;22413;-89
2024/01/01 20:33:55;;;;;;;22.20;9.20;;;;;;;3.92;100.00;98362.05;273586;1269;22487;-90
2024/01/01 20:39:57;;;;;;;16.00;8.20;;;;;;;3.97;100.00;98359.92;273414;1269;22553;-90
2024/01/01 20:45:59;;;;;;;16.60;6.80;;;;;;;4.04;100.00;98361.51;273474;1269;22286;-89
2024/01/01 20:52:01;;;;;;;16.70;6.00;;;;;;;4.15;100.00;98364.95;273598;1269;22379;-89
2024/01/01 20:58:04;;;;;;;12.80;6.20;;;;;;;4.30;100.00;98361.95;273643;1269;22493;-90
2024/01/01 21:04:07;;;;;;;13.00;5.60;;;;;;;4.40;100.00;98367.16;273303;1270;22190;-90
2024/01/01 21:10:10;;;;;;;11.20;4.90;;;;;;;4.47;100.00;98371.91;272161;1269;22483;-90
2024/01/01 21:16:19;;;;;;;13.20;5.30;;;;;;;4.55;100.00;98375.20;273098;1269;22551;-91
2024/01/01 21:22:21;;;;;;;11.00;4.90;;;;;;;4.61;100.00;98380.62;273349;1269;22530;-89
2024/01/01 21:28:23;;;;;;;13.30;5.50;;;;;;;4.58;100.00;98380.87;273765;1259;22207;-90
2024/01/01 21:34:25;;;;;;;13.20;6.60;;;;;;;4.48;100.00;98379.75;273163;1270;24398;-89
2024/01/01 21:40:27;;;;;;;16.40;6.20;;;;;;;4.39;100.00;98377.44;271880;1267;23024;-89
2024/01/01 21:46:28;;;;;;;17.20;6.80;;;;;;;4.32;100.00;98375.71;270808;1269;24243;-89
2024/01/01 21:52:31;;;;;;;15.90;6.50;;;;;;;4.25;100.00;98378.02;270778;1269;22557;-89
2024/01/01 21:58:33;;;;;;;17.10;7.50;;;;;;;4.19;100.00;98371.57;271318;1269;23855;-89
2024/01/01 22:04:35;;;;;;;16.10;6.90;;;;;;;4.13;100.00;98372.57;271874;1269;22636;-89
2024/01/01 22:10:37;;;;;;;19.80;6.90;;;;;;;4.05;100.00;98368.02;273047;1269;23315;-89
2024/01/01 22:16:45;;;;;;;18.80;7.50;;;;;;;3.98;100.00;98363.73;271021;1272;23415;-89
2024/01/01 22:22:47;;;;;;;18.70;7.30;;;;;;;3.94;100.00;98360.39;271023;1269;23392;-89
2024/01/01 22:28:50;;;;;;;19.70;7.80;;;;;;;3.88;100.00;98363.01;272141;1269;22727;-89
2024/01/01 22:34:53;;;;;;;21.40;7.10;;;;;;;3.84;100.00;98366.91;273548;1270;22388;-88
2024/01/01 22:40:55;;;;;;;14.70;6.50;;;;;;;3.81;100.00;98372.48;273527;1270;22186;-89
2024/01/01 22:46:57;;;;;;;22.90;7.00;;;;;;;3.80;100.00;98368.27;273509;1270;22330;-89
2024/01/01 22:52:59;;;;;;;16.40;7.40;;;;;;;3.78;100.00;98365.29;273502;1270;22467;-88
2024/01/01 22:59:01;;;;;;;20.50;8.40;;;;;;;3.72;100.00;98361.32;273482;1270;23143;-88
2024/01/01 23:05:03;;;;;;;20.50;8.00;;;;;;;3.68;100.00;98368.55;273642;1268;22957;-89
2024/01/01 23:11:05;;;;;;;20.60;7.60;;;;;;;3.67;100.00;98367.61;273593;1259;22179;-88
2024/01/01 23:17:07;;;;;;;23.10;8.10;;;;;;;3.67;100.00;98360.96;273613;1253;22579;-89
2024/01/01 23:23:09;;;;;;;15.50;7.30;;;;;;;3.68;100.00;98358.90;273510;1269;23211;-90
2024/01/01 23:29:11;;;;;;;21.10;7.40;;;;;;;3.70;100.00;98359.56;273324;1270;23181;-89
2024/01/01 23:35:16;;;;;;;19.80;7.10;;;;;;;3.72;100.00;98356.23;273305;1268;22187;-90
2024/01/01 23:41:18;;;;;;;13.80;6.00;;;;;;;3.76;100.00;98355.33;273355;1271;22406;-89
2024/01/01 23:47:19;;;;;;;22.10;8.80;;;;;;;3.78;100.00;98354.46;273584;1269;22710;-89
2024/01/01 23:53:21;;;;;;;18.00;6.10;;;;;;;3.81;100.00;98354.92;273649;1268;23159;-89
2024/01/01 23:59:23;;;;;;;14.70;6.40;;;;;;;3.85;100.00;98357.75;273441;1270;22492;-89
